Time;durP1;ratioP1;P1;durP2;ratioP2;P2;SDS_P1;SDS_P2;PMS_P1;PMS_P2;Temp;Humidity;BMP_temperature;BMP_pressure;BME280_temperature;BME280_humidity;BME280_pressure;Samples;Min_cycle;Max_cycle;Signal;HPM_P1;HPM_P2
2022/09/24 00:01:25;;;;;;;29.55;16.13;;;16.20;99.90;;;;;;4981104;28;25132;-76
2022/09/24 00:03:53;;;;;;;28.40;15.85;;;16.20;99.90;;;;;;5005907;28;25056;-75
2022/09/24 00:06:20;;;;;;;29.63;16.00;;;16.10;99.90;;;;;;4995950;28;25082;-73
2022/09/24 00:08:47;;;;;;;25.65;15.07;;;16.10;99.90;;;;;;4990242;28;25142;-75
2022/09/24 00:11:14;;;;;;;25.55;13.68;;;16.00;99.90;;;;;;5002593;28;25062;-77
2022/09/24 00:13:40;;;;;;;22.83;13.52;;;16.00;99.90;;;;;;4990697;28;25077;-75
2022/09/24 00:16:13;;;;;;;21.40;12.98;;;16.00;99.90;;;;;;5002607;28;25093;-74
2022/09/24 00:18:41;;;;;;;22.55;13.10;;;15.90;99.90;;;;;;4983244;28;25077;-74
2022/09/24 00:21:15;;;;;;;24.17;12.65;;;15.80;99.90;;;;;;4985718;28;25045;-75
2022/09/24 00:23:41;;;;;;;23.40;12.23;;;15.70;99.90;;;;;;5000243;28;25076;-75
2022/09/24 00:28:54;;;;;;;21.20;11.20;;;15.70;99.90;;;;;;4992503;28;25074;-75
2022/09/24 00:31:19;;;;;;;19.63;10.95;;;15.70;99.90;;;;;;5003723;28;25069;-75
2022/09/24 00:33:45;;;;;;;21.55;11.80;;;15.60;99.90;;;;;;4994829;28;25057;-76
2022/09/24 00:36:10;;;;;;;18.10;10.80;;;15.60;99.90;;;;;;4970664;28;25065;-77
2022/09/24 00:38:36;;;;;;;22.35;11.57;;;15.50;99.90;;;;;;4996991;28;25092;-77
2022/09/24 00:41:02;;;;;;;18.48;10.80;;;15.60;99.90;;;;;;5004529;28;25096;-75
2022/09/24 00:43:32;;;;;;;22.08;10.57;;;15.50;99.90;;;;;;4993677;28;25050;-76
2022/09/24 00:46:28;;;;;;;19.08;11.07;;;15.60;99.90;;;;;;4996930;28;25078;-75
2022/09/24 00:48:59;;;;;;;19.15;10.38;;;15.60;99.90;;;;;;5001230;28;25070;-76
2022/09/24 00:51:27;;;;;;;18.35;11.10;;;15.60;99.90;;;;;;4989059;28;25058;-74
2022/09/24 00:53:58;;;;;;;18.13;10.65;;;15.70;99.90;;;;;;4992180;28;25082;-75
2022/09/24 00:56:24;;;;;;;23.15;12.05;;;15.60;99.90;;;;;;4986391;28;25178;-76
2022/09/24 00:58:53;;;;;;;24.67;12.35;;;15.70;99.90;;;;;;4996770;28;25150;-75
2022/09/24 01:01:21;;;;;;;21.17;11.65;;;15.70;99.90;;;;;;4975157;28;25071;-74
2022/09/24 01:03:48;;;;;;;21.27;12.32;;;15.80;99.90;;;;;;4987812;28;25090;-75
2022/09/24 01:06:14;;;;;;;25.13;14.20;;;15.80;99.90;;;;;;4989068;28;25056;-75
2022/09/24 01:08:40;;;;;;;22.75;13.15;;;15.90;99.90;;;;;;4997394;28;25067;-76
2022/09/24 01:11:10;;;;;;;24.73;13.43;;;15.90;99.90;;;;;;4975749;28;25130;-77
2022/09/24 01:14:03;;;;;;;22.60;13.45;;;15.80;99.90;;;;;;5002743;28;25056;-79
2022/09/24 01:16:32;;;;;;;24.90;14.15;;;15.80;99.90;;;;;;4980778;28;25117;-77
2022/09/24 01:19:25;;;;;;;20.63;12.40;;;15.70;99.90;;;;;;5005203;28;25066;-79
2022/09/24 01:21:56;;;;;;;21.67;11.85;;;15.70;99.90;;;;;;5002785;28;25093;-78
2022/09/24 01:24:43;;;;;;;19.02;11.30;;;15.70;99.90;;;;;;4995312;28;25054;-77
2022/09/24 01:27:30;;;;;;;21.52;11.45;;;15.80;99.90;;;;;;5012633;28;25067;-76
2022/09/24 01:30:10;;;;;;;25.83;13.70;;;15.70;99.90;;;;;;5003771;28;25062;-76
2022/09/24 01:32:48;;;;;;;22.80;12.63;;;15.60;99.90;;;;;;4998637;28;25059;-75
2022/09/24 01:35:23;;;;;;;24.35;11.75;;;15.60;99.90;;;;;;4979912;28;25089;-76
2022/09/24 01:38:03;;;;;;;22.63;12.73;;;15.50;99.90;;;;;;4997646;28;25103;-75
2022/09/24 01:40:30;;;;;;;16.98;10.85;;;15.50;99.90;;;;;;4985119;28;25096;-76
2022/09/24 01:42:58;;;;;;;24.05;11.98;;;15.60;99.90;;;;;;5002640;28;25129;-77
2022/09/24 01:45:28;;;;;;;17.38;10.73;;;15.60;99.90;;;;;;4988330;28;25055;-75
2022/09/24 01:47:54;;;;;;;20.85;12.23;;;15.60;99.90;;;;;;4992376;28;25147;-75
2022/09/24 01:50:23;;;;;;;20.17;11.68;;;15.70;99.90;;;;;;5006837;28;25069;-75
2022/09/24 01:53:03;;;;;;;20.35;11.95;;;15.60;99.90;;;;;;4994585;28;25059;-75
2022/09/24 01:55:37;;;;;;;21.05;12.02;;;15.60;99.90;;;;;;5002472;28;25066;-76
2022/09/24 01:58:21;;;;;;;21.77;11.77;;;15.60;99.90;;;;;;4984980;28;25069;-76
2022/09/24 02:00:52;;;;;;;19.33;11.13;;;15.50;99.90;;;;;;4957534;28;25054;-76
2022/09/24 02:03:24;;;;;;;20.98;11.55;;;15.60;99.90;;;;;;4984795;28;25082;-75
2022/09/24 02:06:07;;;;;;;22.03;11.43;;;15.50;99.90;;;;;;4983668;28;25071;-76
2022/09/24 02:08:39;;;;;;;20.65;11.52;;;15.60;99.90;;;;;;5001774;28;25094;-75
2022/09/24 02:11:14;;;;;;;19.13;10.88;;;15.60;99.90;;;;;;5006173;28;25065;-75
2022/09/24 02:13:55;;;;;;;22.45;12.48;;;15.70;99.90;;;;;;5000095;28;25105;-75
2022/09/24 02:16:45;;;;;;;22.95;12.80;;;15.70;99.90;;;;;;5003067;28;25091;-77
2022/09/24 02:19:17;;;;;;;24.90;13.57;;;15.60;99.90;;;;;;5018736;28;25065;-76
2022/09/24 02:21:45;;;;;;;21.00;11.93;;;15.70;99.90;;;;;;5018529;28;25109;-75
2022/09/24 02:24:18;;;;;;;23.50;13.60;;;15.50;99.90;;;;;;4991313;28;25072;-76
2022/09/24 02:26:44;;;;;;;23.25;12.32;;;15.60;99.90;;;;;;4985520;28;25064;-74
2022/09/24 02:29:11;;;;;;;24.85;12.88;;;15.70;99.90;;;;;;5002605;28;25059;-75
2022/09/24 02:31:39;;;;;;;30.88;14.10;;;15.70;99.90;;;;;;4987720;28;25063;-77
2022/09/24 02:34:22;;;;;;;22.00;13.68;;;15.70;99.90;;;;;;4994878;28;25071;-74
2022/09/24 02:36:49;;;;;;;25.70;14.02;;;15.80;99.90;;;;;;5005146;28;25083;-75
2022/09/24 02:39:16;;;;;;;24.58;13.00;;;15.80;99.90;;;;;;4980533;28;25076;-75
2022/09/24 02:41:46;;;;;;;28.80;14.93;;;15.80;99.90;;;;;;4992415;28;25146;-77
2022/09/24 02:44:13;;;;;;;28.70;15.43;;;15.80;99.90;;;;;;4995548;28;25109;-76
2022/09/24 02:46:40;;;;;;;23.33;14.95;;;15.70;99.90;;;;;;4992132;28;25090;-75
2022/09/24 02:49:05;;;;;;;25.48;14.02;;;15.80;99.90;;;;;;4997733;28;25064;-77
2022/09/24 02:51:31;;;;;;;30.88;16.70;;;15.80;99.90;;;;;;4992513;28;25066;-75
2022/09/24 02:53:56;;;;;;;27.83;16.63;;;15.70;99.90;;;;;;4990108;28;25092;-73
2022/09/24 02:56:22;;;;;;;30.23;16.17;;;15.80;99.90;;;;;;4998229;28;25131;-75
2022/09/24 02:58:48;;;;;;;31.63;16.50;;;15.90;99.90;;;;;;4985521;28;25054;-74
2022/09/24 03:01:13;;;;;;;32.35;16.02;;;15.90;99.90;;;;;;4980525;28;25117;-74
2022/09/24 03:03:39;;;;;;;35.85;16.55;;;15.80;99.90;;;;;;5008847;28;25063;-73
2022/09/24 03:06:05;;;;;;;33.25;16.73;;;15.70;99.90;;;;;;5009321;28;25073;-75
2022/09/24 03:08:31;;;;;;;30.90;16.60;;;15.90;99.90;;;;;;5014415;28;25076;-74
2022/09/24 03:10:57;;;;;;;32.17;17.65;;;15.90;99.90;;;;;;4966885;28;25113;-74
2022/09/24 03:13:23;;;;;;;32.95;18.15;;;16.00;99.90;;;;;;4984214;28;25062;-74
2022/09/24 03:15:48;;;;;;;30.42;18.88;;;16.00;99.90;;;;;;4979621;28;25072;-75
2022/09/24 03:18:14;;;;;;;35.20;19.17;;;16.00;99.90;;;;;;4983792;28;25060;-75
2022/09/24 03:20:40;;;;;;;34.60;19.17;;;16.00;99.90;;;;;;4978725;28;25092;-74
2022/09/24 03:23:05;;;;;;;37.42;19.63;;;16.10;99.90;;;;;;4994353;28;25146;-74
2022/09/24 03:25:31;;;;;;;31.92;18.60;;;16.00;99.90;;;;;;5001182;28;25064;-76
2022/09/24 03:27:57;;;;;;;36.25;20.58;;;15.90;99.90;;;;;;4976978;28;25103;-76
2022/09/24 03:33:06;;;;;;;40.67;21.50;;;15.80;99.90;;;;;;4987463;28;25172;-75
2022/09/24 03:35:32;;;;;;;37.08;20.13;;;15.80;99.90;;;;;;5004869;28;25087;-76
2022/09/24 03:37:58;;;;;;;37.13;19.40;;;15.80;99.90;;;;;;5006849;28;25132;-76
2022/09/24 03:40:24;;;;;;;35.17;19.90;;;15.80;99.90;;;;;;4998451;28;25085;-74
2022/09/24 03:42:49;;;;;;;34.88;21.08;;;15.90;99.90;;;;;;5002922;28;25154;-76
2022/09/24 03:45:15;;;;;;;36.22;20.13;;;15.90;99.90;;;;;;4988333;28;25063;-75
2022/09/24 03:47:41;;;;;;;31.65;18.90;;;15.90;99.90;;;;;;4985057;28;25130;-76
2022/09/24 03:50:10;;;;;;;39.15;19.88;;;16.00;99.90;;;;;;5005568;28;25090;-76
2022/09/24 03:52:37;;;;;;;34.55;19.67;;;16.20;99.90;;;;;;4996461;28;25080;-75
2022/09/24 03:55:02;;;;;;;31.95;18.60;;;16.10;99.90;;;;;;4988414;28;25047;-76
2022/09/24 03:57:28;;;;;;;39.13;20.15;;;16.20;99.90;;;;;;5004875;28;25064;-76
2022/09/24 03:59:54;;;;;;;36.03;19.25;;;16.10;99.90;;;;;;5003577;28;25151;-75
2022/09/24 04:02:19;;;;;;;33.85;18.80;;;16.10;99.90;;;;;;4991142;28;25169;-76
2022/09/24 04:04:45;;;;;;;37.20;18.88;;;16.20;99.90;;;;;;5000047;28;25057;-75
2022/09/24 04:07:11;;;;;;;35.38;20.30;;;16.20;99.90;;;;;;5004252;28;25091;-75
2022/09/24 04:09:36;;;;;;;35.13;20.15;;;16.20;99.90;;;;;;4986894;28;25083;-76
2022/09/24 04:12:02;;;;;;;31.15;18.15;;;16.10;99.90;;;;;;5003819;28;25134;-76
2022/09/24 04:14:28;;;;;;;32.30;18.20;;;16.10;99.90;;;;;;4987275;28;25150;-78
2022/09/24 04:16:54;;;;;;;33.15;17.98;;;16.00;99.90;;;;;;4984265;28;25077;-76
2022/09/24 04:19:19;;;;;;;34.05;18.80;;;16.10;99.90;;;;;;5000152;28;25066;-75
2022/09/24 04:21:45;;;;;;;29.58;18.10;;;16.20;99.90;;;;;;4991738;28;25078;-78
2022/09/24 04:24:11;;;;;;;32.60;18.73;;;16.20;99.90;;;;;;5013445;28;25076;-74
2022/09/24 04:26:36;;;;;;;33.10;19.33;;;16.10;99.90;;;;;;5016301;28;25065;-74
2022/09/24 04:29:02;;;;;;;29.20;17.80;;;16.00;99.90;;;;;;4979990;28;25105;-74
2022/09/24 04:31:29;;;;;;;30.95;18.42;;;16.10;99.90;;;;;;5007487;28;25083;-73
2022/09/24 04:33:54;;;;;;;28.48;18.33;;;15.90;99.90;;;;;;5000961;28;25054;-75
2022/09/24 04:36:20;;;;;;;33.63;19.35;;;15.90;99.90;;;;;;5007653;28;25105;-74
2022/09/24 04:38:46;;;;;;;31.48;18.45;;;16.00;99.90;;;;;;5013335;28;25113;-75
2022/09/24 04:41:14;;;;;;;26.23;16.33;;;16.00;99.90;;;;;;5012978;28;25071;-76
2022/09/24 04:43:40;;;;;;;30.67;16.90;;;15.90;99.90;;;;;;4993713;28;25079;-75
2022/09/24 04:46:10;;;;;;;25.52;15.27;;;15.90;99.90;;;;;;4998679;28;25075;-75
2022/09/24 04:48:37;;;;;;;24.55;14.88;;;15.90;99.90;;;;;;5019570;28;25088;-76
2022/09/24 04:51:05;;;;;;;25.10;16.20;;;16.00;99.90;;;;;;4995803;28;25073;-76
2022/09/24 04:53:36;;;;;;;23.90;14.43;;;16.00;99.90;;;;;;4983474;28;25126;-75
2022/09/24 04:56:04;;;;;;;25.95;14.95;;;16.10;99.90;;;;;;4997006;28;25068;-76
2022/09/24 04:58:30;;;;;;;26.77;15.52;;;16.10;99.90;;;;;;5009315;28;25095;-78
2022/09/24 05:00:56;;;;;;;21.67;14.02;;;16.20;99.90;;;;;;5016194;28;25106;-76
2022/09/24 05:03:21;;;;;;;21.27;13.60;;;16.20;99.90;;;;;;4996983;28;25068;-75
2022/09/24 05:05:49;;;;;;;25.17;13.88;;;16.10;99.90;;;;;;4994598;28;25079;-75
2022/09/24 05:08:14;;;;;;;20.75;13.52;;;16.00;99.90;;;;;;5007156;28;25113;-76
2022/09/24 05:10:40;;;;;;;20.75;12.27;;;16.00;99.90;;;;;;4999052;28;25153;-75
2022/09/24 05:13:05;;;;;;;19.35;12.73;;;16.10;99.90;;;;;;5000898;28;25174;-75
2022/09/24 05:15:31;;;;;;;22.90;13.35;;;16.20;99.90;;;;;;5005866;28;25066;-78
2022/09/24 05:17:57;;;;;;;20.13;12.93;;;16.10;99.90;;;;;;4990774;28;25062;-76
2022/09/24 05:20:23;;;;;;;22.10;12.95;;;16.00;99.90;;;;;;4992466;28;25064;-75
2022/09/24 05:22:49;;;;;;;22.15;13.77;;;16.10;99.90;;;;;;5009175;28;25069;-76
2022/09/24 05:25:17;;;;;;;23.70;13.77;;;16.10;99.90;;;;;;5005217;28;25061;-75
2022/09/24 05:27:47;;;;;;;20.60;12.25;;;16.20;99.90;;;;;;4984737;28;25138;-75
2022/09/24 05:30:14;;;;;;;19.15;13.13;;;16.20;99.90;;;;;;5001713;28;25076;-76
2022/09/24 05:32:41;;;;;;;20.67;12.30;;;16.10;99.90;;;;;;4993369;28;25061;-76
2022/09/24 05:35:08;;;;;;;20.45;12.75;;;16.10;99.90;;;;;;4994960;28;25076;-76
2022/09/24 05:37:34;;;;;;;21.70;13.77;;;16.20;99.90;;;;;;4988960;28;25080;-77
2022/09/24 05:40:46;;;;;;;19.15;12.32;;;16.20;99.90;;;;;;4984220;28;25065;-78
2022/09/24 05:42:46;;;;;;;20.20;13.02;;;16.30;99.90;;;;;;4986008;28;25126;-80
2022/09/24 05:45:16;;;;;;;21.10;13.27;;;16.30;99.90;;;;;;5000935;28;25068;-75
2022/09/24 05:47:45;;;;;;;21.90;13.93;;;16.20;99.90;;;;;;4982156;28;25442;-76
2022/09/24 05:50:12;;;;;;;24.40;13.85;;;16.30;99.90;;;;;;5005537;28;25084;-77
2022/09/24 05:52:41;;;;;;;22.25;13.43;;;16.30;99.90;;;;;;4984121;28;25062;-77
2022/09/24 05:55:08;;;;;;;22.95;15.00;;;16.30;99.90;;;;;;4992687;28;25145;-76
2022/09/24 05:57:34;;;;;;;23.63;14.50;;;16.10;99.90;;;;;;5000116;28;25065;-79
2022/09/24 06:00:00;;;;;;;26.38;14.98;;;16.00;99.90;;;;;;4995279;28;25160;-74
2022/09/24 06:02:25;;;;;;;31.48;16.50;;;16.10;99.90;;;;;;5004364;28;25092;-75
2022/09/24 06:04:51;;;;;;;22.10;14.07;;;16.10;99.90;;;;;;4994749;28;25089;-76
2022/09/24 06:07:16;;;;;;;24.25;15.45;;;16.20;99.90;;;;;;4978065;28;25117;-75
2022/09/24 06:09:43;;;;;;;30.92;15.88;;;16.10;99.90;;;;;;4993340;28;25146;-76
2022/09/24 06:12:09;;;;;;;27.77;15.80;;;16.10;99.90;;;;;;4994888;28;25063;-74
2022/09/24 06:14:35;;;;;;;29.35;15.60;;;16.20;99.90;;;;;;4997900;28;25137;-76
2022/09/24 06:17:01;;;;;;;27.70;16.40;;;16.30;99.90;;;;;;4994211;28;25128;-76
2022/09/24 06:19:26;;;;;;;31.92;16.48;;;16.30;99.90;;;;;;5017485;28;25108;-79
2022/09/24 06:21:52;;;;;;;28.40;17.60;;;16.30;99.90;;;;;;5000590;28;25084;-77
2022/09/24 06:24:17;;;;;;;30.35;17.25;;;16.20;99.90;;;;;;5012132;28;25119;-77
2022/09/24 06:26:43;;;;;;;33.55;18.00;;;16.30;99.90;;;;;;4994430;28;25113;-77
2022/09/24 06:29:08;;;;;;;33.95;17.80;;;16.40;99.90;;;;;;5000917;28;25067;-77
2022/09/24 06:31:34;;;;;;;36.22;19.10;;;16.40;99.90;;;;;;5003087;28;25175;-78
2022/09/24 06:34:01;;;;;;;32.30;18.55;;;16.40;99.90;;;;;;5002195;28;25111;-78
2022/09/24 06:36:27;;;;;;;36.95;18.27;;;16.30;99.90;;;;;;4987355;28;25063;-78
2022/09/24 06:38:52;;;;;;;33.30;18.23;;;16.50;99.90;;;;;;4997911;28;25064;-76
2022/09/24 06:41:18;;;;;;;34.05;20.30;;;16.40;99.90;;;;;;4981483;28;25423;-78
2022/09/24 06:43:43;;;;;;;38.42;18.90;;;16.40;99.90;;;;;;5000526;28;25067;-76
2022/09/24 06:46:09;;;;;;;36.25;19.77;;;16.30;99.90;;;;;;5003386;28;25117;-77
2022/09/24 06:48:37;;;;;;;36.13;19.17;;;16.40;99.90;;;;;;5007134;28;25064;-80
2022/09/24 06:51:03;;;;;;;41.72;20.48;;;16.40;99.90;;;;;;5014521;28;25058;-79
2022/09/24 06:53:29;;;;;;;33.40;19.02;;;16.60;99.90;;;;;;5013065;28;25066;-78
2022/09/24 06:55:58;;;;;;;37.20;19.30;;;16.60;99.90;;;;;;4981257;28;25067;-78
2022/09/24 06:58:24;;;;;;;39.25;20.98;;;16.60;99.90;;;;;;5003710;28;25076;-79
2022/09/24 07:00:57;;;;;;;36.95;21.20;;;16.70;99.90;;;;;;5002425;28;25075;-78
2022/09/24 07:03:24;;;;;;;42.95;21.65;;;16.60;99.90;;;;;;4998809;28;25052;-79
2022/09/24 07:05:49;;;;;;;35.92;20.48;;;16.50;99.90;;;;;;4989818;28;25074;-79
2022/09/24 07:08:16;;;;;;;40.20;20.50;;;16.60;99.90;;;;;;5002323;28;25076;-79
2022/09/24 07:10:44;;;;;;;44.88;21.55;;;16.40;99.90;;;;;;4987924;28;25066;-79
2022/09/24 07:13:11;;;;;;;43.05;21.27;;;16.60;99.90;;;;;;5006982;28;25062;-73
2022/09/24 07:15:38;;;;;;;39.90;22.17;;;16.70;99.90;;;;;;5004282;28;25129;-83
2022/09/24 07:18:04;;;;;;;39.75;21.10;;;16.90;99.90;;;;;;4987953;28;25157;-82
2022/09/24 07:20:29;;;;;;;40.05;20.95;;;16.80;99.90;;;;;;5007003;28;25059;-80
2022/09/24 07:22:55;;;;;;;48.00;22.00;;;16.70;99.90;;;;;;5014302;28;25054;-82
2022/09/24 07:25:22;;;;;;;43.40;22.35;;;17.00;99.90;;;;;;5015352;28;25099;-79
2022/09/24 07:27:47;;;;;;;39.15;20.90;;;17.00;99.90;;;;;;5008218;28;25128;-78
2022/09/24 07:30:13;;;;;;;41.22;20.73;;;16.90;99.90;;;;;;5015042;28;25085;-80
2022/09/24 07:32:38;;;;;;;40.03;20.55;;;16.70;99.90;;;;;;5006422;28;25077;-80
2022/09/24 07:35:04;;;;;;;37.33;20.40;;;16.70;99.90;;;;;;4989611;28;25062;-78
2022/09/24 07:37:33;;;;;;;42.25;18.30;;;16.70;99.90;;;;;;5011770;28;25072;-80
2022/09/24 07:39:59;;;;;;;43.30;18.33;;;16.60;99.90;;;;;;5011192;28;25051;-81
2022/09/24 07:42:24;;;;;;;34.45;16.17;;;16.70;99.90;;;;;;5027127;28;25099;-81
2022/09/24 07:44:50;;;;;;;39.38;16.45;;;16.80;99.90;;;;;;5029917;28;25049;-81
2022/09/24 07:47:16;;;;;;;40.47;16.65;;;16.70;99.90;;;;;;5003146;28;25102;-81
2022/09/24 07:49:43;;;;;;;41.70;17.40;;;16.90;99.90;;;;;;5029213;28;25075;-82
2022/09/24 07:52:10;;;;;;;38.58;17.50;;;16.90;99.90;;;;;;5027147;28;25066;-81
2022/09/24 07:54:36;;;;;;;32.22;15.25;;;17.10;99.90;;;;;;5020605;28;25082;-80
2022/09/24 07:57:02;;;;;;;36.95;15.18;;;17.00;99.90;;;;;;5022776;28;25055;-80
2022/09/24 07:59:29;;;;;;;31.98;13.70;;;17.00;99.90;;;;;;4994865;28;25081;-78
2022/09/24 08:01:56;;;;;;;26.48;12.32;;;17.00;99.90;;;;;;5016332;28;25064;-83
2022/09/24 08:04:21;;;;;;;26.08;12.18;;;17.00;99.90;;;;;;5000171;28;25081;-77
2022/09/24 08:06:47;;;;;;;32.65;12.63;;;17.10;99.90;;;;;;5019635;28;25074;-79
2022/09/24 08:09:15;;;;;;;27.55;12.02;;;17.10;99.90;;;;;;5006355;28;25081;-83
2022/09/24 08:11:41;;;;;;;30.23;12.93;;;17.10;99.90;;;;;;5015780;28;25152;-83
2022/09/24 08:14:06;;;;;;;28.27;12.88;;;17.20;99.90;;;;;;4992198;28;25053;-81
2022/09/24 08:16:32;;;;;;;33.30;15.55;;;17.30;99.90;;;;;;5008645;28;25134;-79
2022/09/24 08:18:57;;;;;;;31.08;13.93;;;17.30;99.90;;;;;;5004817;28;25150;-78
2022/09/24 08:21:23;;;;;;;31.98;14.70;;;17.30;99.90;;;;;;5008001;28;25056;-80
2022/09/24 08:23:48;;;;;;;34.78;15.35;;;17.30;99.90;;;;;;5003642;28;25168;-81
2022/09/24 08:26:14;;;;;;;38.92;17.75;;;17.30;99.90;;;;;;5008330;28;25070;-78
2022/09/24 08:28:41;;;;;;;40.13;17.52;;;17.40;99.90;;;;;;5003011;28;25068;-80
2022/09/24 08:31:10;;;;;;;44.72;18.05;;;17.40;99.90;;;;;;4973837;28;25126;-81
2022/09/24 08:33:36;;;;;;;38.95;17.15;;;17.20;99.90;;;;;;4992531;28;25097;-79
2022/09/24 08:36:05;;;;;;;33.83;15.35;;;17.30;99.90;;;;;;5002097;28;25132;-79
2022/09/24 08:38:31;;;;;;;34.45;15.48;;;17.40;99.90;;;;;;5002592;28;25060;-81
2022/09/24 08:41:10;;;;;;;40.30;17.65;;;17.40;99.90;;;;;;5001091;28;25160;-77
2022/09/24 08:43:44;;;;;;;35.85;15.18;;;17.30;99.90;;;;;;4998425;28;25172;-81
2022/09/24 08:49:04;;;;;;;;;;;17.40;99.90;;;;;;5002815;28;25083;-79
2022/09/24 08:51:40;;;;;;;34.40;13.07;;;17.40;99.90;;;;;;5007958;28;24063;-79
2022/09/24 08:54:11;;;;;;;35.17;13.82;;;17.40;99.90;;;;;;4983290;28;25138;-81
2022/09/24 08:56:42;;;;;;;37.15;14.52;;;17.40;99.90;;;;;;4981887;28;25060;-82
2022/09/24 08:59:31;;;;;;;30.55;12.25;;;17.50;99.90;;;;;;5005751;28;25052;-78
2022/09/24 09:02:34;;;;;;;24.13;12.32;;;17.50;99.90;;;;;;5008602;28;25053;-80
2022/09/24 09:05:26;;;;;;;26.38;12.45;;;17.50;99.90;;;;;;5003826;28;25121;-82
2022/09/24 09:08:07;;;;;;;24.77;11.90;;;17.50;99.90;;;;;;4998083;28;25063;-81
2022/09/24 09:10:37;;;;;;;29.92;13.35;;;17.60;99.90;;;;;;5003023;28;25078;-82
2022/09/24 09:13:18;;;;;;;28.60;11.50;;;17.60;99.90;;;;;;5016659;28;25078;-82
2022/09/24 09:15:50;;;;;;;18.67;8.55;;;17.60;99.90;;;;;;5012387;28;25061;-85
2022/09/24 09:18:21;;;;;;;20.70;7.43;;;17.40;99.90;;;;;;4984201;28;25154;-82
2022/09/24 09:20:48;;;;;;;12.20;5.15;;;17.50;99.90;;;;;;5003460;28;25117;-80
2022/09/24 09:23:46;;;;;;;15.43;4.60;;;17.40;99.90;;;;;;4991657;28;25079;-86
2022/09/24 09:26:12;;;;;;;7.10;3.42;;;17.40;99.90;;;;;;4986824;28;25164;-81
2022/09/24 09:28:37;;;;;;;10.95;3.67;;;17.40;99.90;;;;;;4989670;28;25079;-83
2022/09/24 09:31:26;;;;;;;13.38;3.72;;;17.40;99.90;;;;;;5005162;28;25096;-82
2022/09/24 09:34:18;;;;;;;19.88;3.83;;;17.50;99.90;;;;;;5005339;28;25083;-79
2022/09/24 09:37:13;;;;;;;11.27;2.95;;;17.30;99.90;;;;;;4999559;28;25076;-80
2022/09/24 09:40:16;;;;;;;22.00;3.60;;;17.40;99.90;;;;;;4994965;28;25166;-81
2022/09/24 09:42:44;;;;;;;8.50;2.42;;;17.40;99.90;;;;;;4997927;28;25075;-80
2022/09/24 09:45:45;;;;;;;6.10;2.83;;;17.40;99.90;;;;;;4998278;28;25160;-79
2022/09/24 09:48:13;;;;;;;11.80;2.45;;;17.40;99.90;;;;;;4963910;28;25088;-80
2022/09/24 09:50:48;;;;;;;13.43;2.97;;;17.40;99.90;;;;;;4999002;28;25066;-85
2022/09/24 09:53:25;;;;;;;11.60;3.17;;;17.50;99.90;;;;;;4997627;28;25087;-81
2022/09/24 09:56:06;;;;;;;14.32;2.92;;;17.50;99.90;;;;;;5002604;28;25083;-80
2022/09/24 09:58:40;;;;;;;5.93;2.45;;;17.30;99.90;;;;;;4994829;28;25058;-80
2022/09/24 10:01:08;;;;;;;8.30;2.60;;;17.40;99.90;;;;;;4998226;28;25097;-81
2022/09/24 10:03:45;;;;;;;5.88;2.10;;;17.30;99.90;;;;;;4996194;28;25043;-81
2022/09/24 10:06:28;;;;;;;5.65;2.85;;;17.30;99.90;;;;;;4996651;28;25087;-78
2022/09/24 10:09:04;;;;;;;3.95;2.28;;;17.40;99.90;;;;;;4989393;28;25054;-77
2022/09/24 10:11:30;;;;;;;9.27;2.40;;;17.30;99.90;;;;;;4993758;28;25071;-78
2022/09/24 10:14:08;;;;;;;15.43;2.47;;;17.40;99.90;;;;;;4995260;28;25070;-79
2022/09/24 10:16:39;;;;;;;6.68;2.10;;;17.40;99.90;;;;;;4981985;28;25055;-77
2022/09/24 10:19:24;;;;;;;6.20;1.90;;;17.40;99.90;;;;;;5000256;28;25143;-78
2022/09/24 10:21:51;;;;;;;8.35;1.95;;;17.50;99.90;;;;;;5000952;28;25054;-80
2022/09/24 10:24:23;;;;;;;10.40;2.97;;;17.30;99.90;;;;;;5001324;28;25073;-79
2022/09/24 10:26:49;;;;;;;7.63;2.13;;;17.30;99.90;;;;;;5000131;28;25150;-80
2022/09/24 10:32:23;;;;;;;7.55;2.10;;;17.50;99.90;;;;;;5008702;28;25079;-77
2022/09/24 10:34:55;;;;;;;5.20;1.70;;;17.40;99.90;;;;;;5003372;28;25085;-78
2022/09/24 10:37:21;;;;;;;;;;;17.40;99.90;;;;;;4998156;28;25063;-76
2022/09/24 10:39:59;;;;;;;6.22;1.88;;;17.40;99.90;;;;;;5008443;28;24075;-77
2022/09/24 10:42:28;;;;;;;7.57;1.80;;;17.30;99.90;;;;;;5006410;28;25059;-79
2022/09/24 10:44:55;;;;;;;5.53;2.05;;;17.30;99.90;;;;;;5005212;28;25061;-78
2022/09/24 10:47:56;;;;;;;11.85;2.42;;;17.30;99.90;;;;;;5013664;28;25106;-78
2022/09/24 10:50:35;;;;;;;6.13;2.40;;;17.30;99.90;;;;;;5012066;28;25079;-76
2022/09/24 10:53:14;;;;;;;6.35;2.38;;;17.30;99.90;;;;;;5006198;28;25091;-76
2022/09/24 10:55:54;;;;;;;10.52;2.78;;;17.30;99.90;;;;;;5000536;28;25049;-77
2022/09/24 10:58:57;;;;;;;14.77;2.38;;;17.40;99.90;;;;;;5001083;28;25108;-76
2022/09/24 11:01:48;;;;;;;12.93;3.17;;;17.50;99.90;;;;;;5000636;28;25092;-77
2022/09/24 11:04:18;;;;;;;10.20;2.22;;;17.50;99.90;;;;;;5013863;28;25080;-78
2022/09/24 11:07:13;;;;;;;6.97;1.88;;;17.40;99.90;;;;;;5004131;28;25063;-78
2022/09/24 11:09:58;;;;;;;11.43;2.45;;;17.30;99.90;;;;;;5007552;28;25052;-77
2022/09/24 11:12:48;;;;;;;8.57;2.22;;;17.50;99.90;;;;;;5006298;28;25093;-75
2022/09/24 11:15:24;;;;;;;9.35;2.20;;;17.50;99.90;;;;;;5012558;28;25078;-77
2022/09/24 11:18:09;;;;;;;10.30;2.30;;;17.50;99.90;;;;;;5012695;28;25077;-80
2022/09/24 11:20:45;;;;;;;9.73;3.08;;;17.50;99.90;;;;;;5011775;28;25110;-80
2022/09/24 11:23:29;;;;;;;9.68;2.28;;;17.70;99.90;;;;;;5006547;28;25062;-79
2022/09/24 11:26:06;;;;;;;7.28;2.55;;;17.50;99.90;;;;;;5001839;28;25081;-77
2022/09/24 11:29:00;;;;;;;6.90;2.30;;;17.50;99.90;;;;;;5019435;28;25084;-77
2022/09/24 11:31:33;;;;;;;8.95;2.05;;;17.50;99.90;;;;;;5014878;28;25056;-78
2022/09/24 11:34:04;;;;;;;8.20;2.30;;;17.60;99.90;;;;;;5011491;28;25062;-79
2022/09/24 11:37:01;;;;;;;4.13;2.05;;;17.50;99.90;;;;;;5009058;28;25046;-76
2022/09/24 11:39:44;;;;;;;6.88;2.10;;;17.60;99.90;;;;;;4987510;28;25068;-78
2022/09/24 11:42:50;;;;;;;7.00;2.80;;;17.60;99.90;;;;;;5009956;28;25153;-76
2022/09/24 11:45:27;;;;;;;5.38;1.50;;;17.60;99.90;;;;;;5008526;28;25060;-76
2022/09/24 11:48:17;;;;;;;9.80;2.72;;;17.60;99.90;;;;;;5013452;28;25057;-78
2022/09/24 11:51:02;;;;;;;8.30;2.47;;;17.70;99.90;;;;;;5016342;28;25093;-75
2022/09/24 11:53:40;;;;;;;7.57;3.13;;;17.50;99.90;;;;;;5004182;28;25078;-77
2022/09/24 11:56:16;;;;;;;11.25;2.10;;;17.60;99.90;;;;;;5016149;28;25090;-76
2022/09/24 11:58:47;;;;;;;6.18;1.98;;;17.60;99.90;;;;;;5022046;28;25067;-79
2022/09/24 12:01:18;;;;;;;6.32;1.95;;;17.60;99.90;;;;;;5015814;28;25076;-78
2022/09/24 12:04:03;;;;;;;6.78;2.10;;;17.50;99.90;;;;;;4997140;28;25109;-76
2022/09/24 12:06:51;;;;;;;17.02;2.88;;;17.60;99.90;;;;;;5014514;28;25063;-78
2022/09/24 12:09:33;;;;;;;9.18;2.95;;;17.60;99.90;;;;;;5012394;28;25102;-78
2022/09/24 12:12:24;;;;;;;9.43;2.72;;;17.70;99.90;;;;;;4990426;28;25101;-79
2022/09/24 12:15:20;;;;;;;11.48;2.88;;;17.80;99.90;;;;;;5009900;28;25084;-76
2022/09/24 12:17:57;;;;;;;12.00;2.78;;;17.90;99.90;;;;;;5007046;28;25504;-76
2022/09/24 12:20:27;;;;;;;11.57;2.92;;;17.90;99.90;;;;;;4999670;28;25094;-78
2022/09/24 12:22:58;;;;;;;8.52;2.70;;;17.90;99.90;;;;;;5007360;28;25050;-76
2022/09/24 12:25:48;;;;;;;13.38;3.55;;;18.10;99.90;;;;;;5000770;28;25063;-77
2022/09/24 12:32:53;;;;;;;11.52;3.20;;;18.20;99.90;;;;;;4999205;28;25071;-77
2022/09/24 12:34:03;;;;;;;14.27;3.30;;;18.30;99.90;;;;;;4996352;28;25112;-76
2022/09/24 12:36:55;;;;;;;9.05;3.50;;;18.20;99.90;;;;;;4995707;28;25073;-77
2022/09/24 12:39:27;;;;;;;8.30;3.17;;;18.20;99.90;;;;;;5007853;28;25090;-76
2022/09/24 12:42:05;;;;;;;16.48;3.00;;;18.10;99.90;;;;;;5006459;28;25138;-76
2022/09/24 12:44:47;;;;;;;14.05;3.58;;;18.10;99.90;;;;;;4982120;28;25088;-76
2022/09/24 12:47:20;;;;;;;7.95;2.70;;;18.10;99.90;;;;;;4984557;28;25071;-76
2022/09/24 12:50:01;;;;;;;15.77;3.03;;;18.00;99.90;;;;;;5011942;28;25059;-76
2022/09/24 12:52:41;;;;;;;10.57;2.70;;;18.00;99.90;;;;;;4986011;28;25061;-77
2022/09/24 12:55:21;;;;;;;12.38;3.00;;;18.10;99.90;;;;;;5000861;28;25118;-78
2022/09/24 12:57:58;;;;;;;11.02;2.38;;;18.00;99.90;;;;;;4990178;28;25074;-74
2022/09/24 13:00:44;;;;;;;11.68;2.97;;;18.10;99.90;;;;;;5005597;28;25106;-75
2022/09/24 13:03:31;;;;;;;6.68;2.60;;;17.90;99.90;;;;;;4998578;28;25068;-76
2022/09/24 13:05:58;;;;;;;9.77;2.67;;;18.10;99.90;;;;;;4996444;28;25070;-76
2022/09/24 13:08:33;;;;;;;11.27;2.75;;;18.00;99.90;;;;;;4999579;28;25075;-76